Meteo Giornale » Osservazioni meteo Italia » Venezia-Tessera

ore: 03:20 - Osservazioni Meteo Venezia-Tessera
Lat. 45° 30' N Lon. 12° 20' E Alt. 2 metri s.l.m.

sereno Europe/Rome

2 °C

Sereno

Temp. 24 Ore

2 °C

13 °C

Nord

3.7 Km/h

Dew point -0 °C

Umidità 86 %

Visibilità  10 Km

Il sole sorge alle ore 06:46

Il sole tramonta alle ore 17:58

Data e Ora Cielo e Fenomeni T °C DP °C Um. % Pres. hPa Vis. km Vento km/h
Oggi h: 03:20 sereno Sereno 2 -0 86 1030 10 N 3.7
Oggi h: 02:50 sereno Sereno 3 -0 80 1031 10 N 1.8
Oggi h: 02:20 sereno Sereno 4 -1 69 1031 10 N 5.5
Oggi h: 01:50 sereno Sereno 4 0 75 1031 10 N 5.5
Oggi h: 01:20 sereno Sereno 3 -0 80 1031 10 NE 7.4
Oggi h: 00:50 sereno Sereno 4 1 80 1031 10 N 3.7
Oggi h: 00:20 sereno Sereno 4 2 86 1031 10 N 3.7
Ieri h: 23:50 sereno Sereno 5 2 80 1031 10 N 3.7
Ieri h: 23:20 sereno Sereno 4 1 80 1031 10 N 5.5
Ieri h: 22:50 sereno Sereno 5 1 75 1031 10 N 5.5
Ieri h: 22:20 sereno Sereno 6 1 70 1031 10 N 5.5
Ieri h: 21:50 sereno Sereno 6 2 75 1031 10 N 5.5
Ieri h: 19:50 sereno Sereno 9 -1 49 1030 10 N 3.7
Ieri h: 19:20 sereno Sereno 9 -1 49 1030 10 N 5.5
Ieri h: 18:50 sereno Sereno 8 2 65 1030 10 O/SO 7.4
Ieri h: 18:20 sereno Sereno 9 3 66 1030 10 O/SO 9.3
Ieri h: 17:50 sereno Sereno 11 2 53 1030 10 SO 7.4
Ieri h: 17:20 sereno Sereno 12 1 46 1030 10 SO 7.4
Ieri h: 16:50 sereno Sereno 13 -1 37 1030 10 N 3.7
Ieri h: 15:50 sereno Sereno 12 -2 37 1031 10 SE 9.3
Ieri h: 15:20 sereno Sereno 13 -1 37 1031 10 S/SE 9.3
Ieri h: 14:50 sereno Sereno 13 -2 35 1032 10 E 13
Ieri h: 14:20 sereno Sereno 12 -2 37 1032 10 E 13
Ieri h: 13:50 sereno Sereno 12 -1 40 1032 10 E 14.8
Ieri h: 13:20 sereno Sereno 12 -2 37 1033 10 E 16.7
Ieri h: 12:50 sereno Sereno 12 -2 37 1033 10 E 18.5
Ieri h: 12:20 sereno Sereno 11 -1 43 1034 10 E/NE 18.5
Ieri h: 11:50 sereno Sereno 11 -2 40 1034 10 E/NE 20.3
Ieri h: 10:50 sereno Sereno 11 -1 43 1034 10 E 22.2
Ieri h: 10:20 sereno Sereno 10 -0 49 1034 10 E 25.9
Ieri h: 09:50 sereno Sereno 9 0 53 1034 10 E/NE 16.7
Ieri h: 09:20 sereno Sereno 8 0 56 1034 10 NE 16.7
Ieri h: 08:50 sereno Sereno 7 -0 60 1034 10 NE 14.8
Ieri h: 08:20 sereno Sereno 6 -0 65 1033 10 NE 14.8
Ieri h: 07:50 sereno Sereno 5 -1 65 1033 10 N/NE 11.1
Ieri h: 07:20 sereno Sereno 3 -1 74 1033 10 N/NE 13
Ieri h: 06:50 sereno Sereno 3 -1 74 1033 10 N/NE 11.1
Ieri h: 06:20 sereno Sereno 4 -1 69 1033 10 N/NE 9.3
Ieri h: 05:50 sereno Sereno 5 -1 65 1033 10 N/NE 14.8
Ieri h: 05:20 sereno Sereno 5 -0 70 1032 10 N/NE 18.5
Ieri h: 04:50 sereno Sereno 5 -0 70 1032 10 N/NE 18.5
Ieri h: 04:20 sereno Sereno 5 0 70 1032 10 N/NE 14.8
Ieri h: 03:50 sereno Sereno 6 0 65 1032 10 N/NE 16.7